Impacts TAF Board INFO
FOR SITUATIONAL AWARENESS. NOT TO BE USED FOR FLIGHT PLANNING PURPOSES.
IDs:

KMIA - Miami Intl, FL, US

Issued at 2332 UTC 22 Jun 2018
Updated at 0020 UTC 23 Jun 2018
Potential Impact None Slight Moderate High
Time<<23/13Z 23/14Z 23/15Z 23/16Z 23/17Z 23/18Z 23/19Z 23/20Z 23/21Z 23/22Z 23/23Z 24/00Z 24/01Z>>
Type PRVL PRVL PRVL PRVL PRVL PRVL PRVL PRVL PRVL PRVL PRVL PRVL PRVL
VIS >6 >6 >6 >6 >6 >6 >6 >6 >6 >6 >6 >6 >6
CIG -- -- -- -- -- 50 50 50 50 50 50 120 120
Cover SCT SCT SCT SCT SCT BKN BKN BKN BKN BKN BKN BKN BKN
FltCat VFR VFR VFR VFR VFR VFR VFR VFR VFR VFR VFR VFR VFR
WX -- -- -- -- -- VCTS VCTS VCTS VCTS VCTS VCTS VCSH VCSH
WDir VRB 290 290 290 290 330 330 330 330 330 330 VRB VRB
WSpd 3 5 5 5 5 5 5 5 5 5 5 5 5
WGst -- -- -- -- -- -- -- -- -- -- -- -- --

Raw TAF
KMIA 222332Z 2300/2406 11005KT P6SM VCSH FEW025 SCT070 BKN120
  FM230200 VRB03KT P6SM FEW025 SCT250
  FM231400 29005KT P6SM SCT030 SCT050
  FM231800 33005KT P6SM VCTS SCT025CB BKN050
  FM240000 VRB05KT P6SM VCSH FEW030 SCT070 BKN120
  FM240200 VRB03KT P6SM FEW020 SCT250


METAR Board
Radar Display
Forecast Discussion

FOR SITUATIONAL AWARENESS. NOT TO BE USED FOR FLIGHT PLANNING PURPOSES.